Time;durP1;ratioP1;P1;durP2;ratioP2;P2;SDS_P1;SDS_P2;PMS_P1;PMS_P2;Temp;Humidity;BMP_temperature;BMP_pressure;BME280_temperature;BME280_humidity;BME280_pressure;Samples;Min_cycle;Max_cycle;Signal;HPM_P1;HPM_P2
2022/03/19 00:02:52;;;;;;;34.38;15.85;;;8.40;90.30;;;;;;10136018;28;20076;-70
2022/03/19 00:07:42;;;;;;;29.85;15.77;;;8.30;90.40;;;;;;10119715;28;20037;-68
2022/03/19 00:12:33;;;;;;;30.08;14.27;;;8.20;90.40;;;;;;10134343;28;20262;-66
2022/03/19 00:17:24;;;;;;;33.58;16.25;;;8.20;90.50;;;;;;10133668;28;20550;-68
2022/03/19 00:22:15;;;;;;;34.35;16.45;;;8.20;90.60;;;;;;10134606;28;20491;-68
2022/03/19 00:27:05;;;;;;;36.60;17.95;;;8.10;90.60;;;;;;10133091;28;20021;-66
2022/03/19 00:31:56;;;;;;;41.67;18.23;;;8.10;90.70;;;;;;10134400;28;20032;-66
2022/03/19 00:36:47;;;;;;;36.88;18.90;;;8.00;90.70;;;;;;10139637;28;20107;-68
2022/03/19 00:41:37;;;;;;;32.63;16.92;;;8.10;90.80;;;;;;10132591;28;20552;-69
2022/03/19 00:46:28;;;;;;;39.25;18.45;;;8.00;90.80;;;;;;10121782;28;20129;-68
2022/03/19 00:51:19;;;;;;;36.03;17.88;;;7.90;90.90;;;;;;10117874;28;20406;-68
2022/03/19 00:56:10;;;;;;;36.35;17.00;;;8.00;90.90;;;;;;10134407;28;20048;-68
2022/03/19 01:01:01;;;;;;;39.97;18.00;;;8.00;90.90;;;;;;10139174;28;20036;-69
2022/03/19 01:05:51;;;;;;;38.83;18.40;;;7.90;90.90;;;;;;10119000;28;20167;-69
2022/03/19 01:10:42;;;;;;;36.45;17.88;;;7.90;90.90;;;;;;10122572;28;20036;-68
2022/03/19 01:15:33;;;;;;;34.65;16.55;;;7.80;90.90;;;;;;10141498;28;20067;-69
2022/03/19 01:20:24;;;;;;;35.80;17.08;;;7.80;91.00;;;;;;10132672;28;20056;-68
2022/03/19 01:25:16;;;;;;;35.72;17.73;;;7.80;90.90;;;;;;10136714;28;20036;-68
2022/03/19 01:30:09;;;;;;;37.97;18.25;;;7.80;91.00;;;;;;10136052;28;20146;-67
2022/03/19 01:34:59;;;;;;;34.72;16.83;;;7.80;90.90;;;;;;10134781;28;20074;-68
2022/03/19 01:39:53;;;;;;;40.05;17.55;;;7.80;91.00;;;;;;10136216;28;20044;-67
2022/03/19 01:44:44;;;;;;;37.85;16.67;;;7.70;91.10;;;;;;10124247;28;20112;-69
2022/03/19 01:49:35;;;;;;;35.88;16.50;;;7.70;91.20;;;;;;10146784;28;20071;-68
2022/03/19 01:54:31;;;;;;;33.20;16.17;;;7.70;91.00;;;;;;10144954;28;20025;-67
2022/03/19 01:59:30;;;;;;;37.45;18.83;;;7.60;91.20;;;;;;10140733;28;20036;-68
2022/03/19 02:04:21;;;;;;;35.80;17.05;;;7.60;91.30;;;;;;10140577;28;20517;-68
2022/03/19 02:09:13;;;;;;;35.90;16.63;;;7.60;91.20;;;;;;10136256;28;20226;-68
2022/03/19 02:14:04;;;;;;;41.20;18.63;;;7.50;91.20;;;;;;10146145;28;20021;-68
2022/03/19 02:18:57;;;;;;;36.60;15.82;;;7.50;91.30;;;;;;10145515;28;20020;-68
2022/03/19 02:29:07;;;;;;;34.60;17.48;;;7.50;91.40;;;;;;10136325;28;20075;-69
2022/03/19 02:33:58;;;;;;;39.85;17.40;;;7.50;91.30;;;;;;10136767;28;20028;-68
2022/03/19 02:38:51;;;;;;;37.13;18.17;;;7.40;91.60;;;;;;10140606;28;20104;-68
2022/03/19 02:43:42;;;;;;;34.45;16.70;;;7.40;91.40;;;;;;10141694;28;20132;-69
2022/03/19 02:48:33;;;;;;;39.42;17.60;;;7.40;91.30;;;;;;10135189;28;20115;-69
2022/03/19 02:53:23;;;;;;;35.70;18.95;;;7.40;91.50;;;;;;10121607;28;20046;-69
2022/03/19 02:58:14;;;;;;;31.60;15.60;;;7.40;91.40;;;;;;10148887;28;20028;-68
2022/03/19 03:03:05;;;;;;;31.25;15.10;;;7.30;91.40;;;;;;10145095;28;20036;-68
2022/03/19 03:07:56;;;;;;;43.03;18.00;;;7.30;91.30;;;;;;10144709;28;20032;-69
2022/03/19 03:12:47;;;;;;;33.08;16.23;;;7.30;91.40;;;;;;10145685;28;20059;-68
2022/03/19 03:17:37;;;;;;;34.13;16.00;;;7.30;91.30;;;;;;10145355;28;20040;-69
2022/03/19 03:22:29;;;;;;;36.92;15.60;;;7.20;91.30;;;;;;10145313;28;20025;-68
2022/03/19 03:27:21;;;;;;;33.80;14.90;;;7.30;91.50;;;;;;10131572;28;20028;-70
2022/03/19 03:32:11;;;;;;;37.85;16.10;;;7.20;91.40;;;;;;10137691;28;20029;-68
2022/03/19 03:37:02;;;;;;;31.17;15.45;;;7.20;91.40;;;;;;10119624;28;20025;-70
2022/03/19 03:41:53;;;;;;;34.15;16.00;;;7.30;91.30;;;;;;10134544;28;20521;-68
2022/03/19 03:46:44;;;;;;;32.65;15.60;;;7.20;91.20;;;;;;10131093;28;20044;-67
2022/03/19 03:51:34;;;;;;;36.67;14.57;;;7.20;91.30;;;;;;10135154;28;20053;-69
2022/03/19 03:56:26;;;;;;;30.17;15.13;;;7.20;91.30;;;;;;10133793;28;20021;-68
2022/03/19 04:01:17;;;;;;;32.63;16.73;;;7.20;91.20;;;;;;10133158;28;20045;-67
2022/03/19 04:06:08;;;;;;;36.40;14.40;;;7.20;91.20;;;;;;10130216;28;20032;-68
2022/03/19 04:10:59;;;;;;;33.40;15.13;;;7.10;91.30;;;;;;10132133;28;20101;-68
2022/03/19 04:15:50;;;;;;;35.45;16.02;;;7.10;91.40;;;;;;10115420;28;20035;-70
2022/03/19 04:20:41;;;;;;;34.00;16.20;;;7.10;91.30;;;;;;10118398;28;20029;-67
2022/03/19 04:25:31;;;;;;;31.92;15.27;;;7.10;91.20;;;;;;10131400;28;20560;-69
2022/03/19 04:30:25;;;;;;;39.85;16.92;;;7.10;91.20;;;;;;10110415;28;20075;-67
2022/03/19 04:40:26;;;;;;;31.33;15.15;;;7.00;91.20;;;;;;10125806;28;20090;-66
2022/03/19 04:45:17;;;;;;;30.50;15.48;;;7.00;91.20;;;;;;10134905;28;20040;-68
2022/03/19 04:50:08;;;;;;;32.63;17.10;;;6.90;91.20;;;;;;10130457;28;20115;-67
2022/03/19 04:55:00;;;;;;;27.45;14.52;;;6.90;91.20;;;;;;10132085;28;20028;-68
2022/03/19 04:59:51;;;;;;;34.95;16.95;;;6.90;91.30;;;;;;10131004;28;20060;-69
2022/03/19 05:04:42;;;;;;;31.35;14.75;;;6.90;91.20;;;;;;10131799;28;20041;-68
2022/03/19 05:14:42;;;;;;;32.10;13.88;;;6.80;91.30;;;;;;10127000;28;20047;-67
2022/03/19 05:19:33;;;;;;;31.35;14.70;;;6.70;91.60;;;;;;10113165;28;20896;-69
2022/03/19 05:24:23;;;;;;;29.42;13.02;;;6.70;91.60;;;;;;10131289;28;20147;-69
2022/03/19 05:29:14;;;;;;;30.17;14.23;;;6.70;91.70;;;;;;10132278;28;20021;-64
2022/03/19 05:39:14;;;;;;;27.35;13.18;;;6.60;91.70;;;;;;10132024;28;20079;-67
2022/03/19 05:44:05;;;;;;;30.52;14.90;;;6.60;91.80;;;;;;10133489;28;20043;-65
2022/03/19 05:48:55;;;;;;;34.10;14.52;;;6.60;91.70;;;;;;10131927;28;20740;-70
2022/03/19 05:53:46;;;;;;;33.67;14.93;;;6.60;91.70;;;;;;10132337;28;20028;-69
2022/03/19 05:58:37;;;;;;;33.70;15.20;;;6.60;91.70;;;;;;10136333;28;20114;-68
2022/03/19 06:03:28;;;;;;;28.80;13.75;;;6.60;91.80;;;;;;10141073;28;20029;-69
2022/03/19 06:08:18;;;;;;;30.05;15.02;;;6.60;91.80;;;;;;10118684;28;20090;-70
2022/03/19 06:13:09;;;;;;;29.08;14.32;;;6.70;91.70;;;;;;10137358;28;20100;-70
2022/03/19 06:18:00;;;;;;;32.58;14.18;;;6.70;91.70;;;;;;10131905;28;20115;-66
2022/03/19 06:22:50;;;;;;;33.00;15.20;;;6.60;91.70;;;;;;10131742;28;20139;-67
2022/03/19 06:27:41;;;;;;;31.05;15.60;;;6.70;91.60;;;;;;10132159;28;20397;-66
2022/03/19 06:32:32;;;;;;;31.90;13.95;;;6.70;91.60;;;;;;10135927;28;20581;-69
2022/03/19 06:37:22;;;;;;;34.00;15.45;;;6.80;91.60;;;;;;10133046;28;20480;-68
2022/03/19 06:42:13;;;;;;;34.17;15.82;;;6.80;91.50;;;;;;10136440;28;20513;-68
2022/03/19 06:47:05;;;;;;;29.65;13.80;;;6.80;91.60;;;;;;10136972;28;20595;-67
2022/03/19 06:51:55;;;;;;;26.45;14.48;;;6.80;91.50;;;;;;10134836;28;20028;-65
2022/03/19 06:56:46;;;;;;;29.83;14.70;;;6.90;91.50;;;;;;10136102;28;20025;-66
2022/03/19 07:01:36;;;;;;;29.02;16.27;;;6.90;91.40;;;;;;10135448;28;20048;-68
2022/03/19 07:06:27;;;;;;;36.75;16.95;;;7.00;91.30;;;;;;10135641;28;20031;-68
2022/03/19 07:11:18;;;;;;;30.70;14.88;;;7.10;91.30;;;;;;10136590;28;20111;-70
2022/03/19 07:16:08;;;;;;;29.67;15.95;;;7.20;91.20;;;;;;10135108;28;20137;-68
2022/03/19 07:21:00;;;;;;;31.20;14.75;;;7.30;91.00;;;;;;10134820;28;20036;-65
2022/03/19 07:25:50;;;;;;;31.45;14.05;;;7.40;90.90;;;;;;10135032;28;20462;-65
2022/03/19 07:30:41;;;;;;;30.83;13.93;;;7.50;90.80;;;;;;10129227;28;20107;-67
2022/03/19 07:35:32;;;;;;;27.05;13.65;;;7.50;90.70;;;;;;10134382;28;20033;-68
2022/03/19 07:45:35;;;;;;;25.73;12.70;;;7.80;90.40;;;;;;10135552;28;20590;-69
2022/03/19 07:50:26;;;;;;;32.13;16.45;;;7.90;90.40;;;;;;10108855;28;20060;-65
2022/03/19 07:55:18;;;;;;;31.17;15.25;;;8.00;90.20;;;;;;10116963;28;20437;-68
2022/03/19 08:00:09;;;;;;;29.08;13.57;;;8.10;90.10;;;;;;10133853;28;20077;-68
2022/03/19 08:05:03;;;;;;;34.17;17.55;;;8.10;90.00;;;;;;10134458;28;20778;-68
2022/03/19 08:09:53;;;;;;;31.15;14.90;;;8.20;90.00;;;;;;10122434;28;20028;-66
2022/03/19 08:14:44;;;;;;;30.48;15.93;;;8.30;89.70;;;;;;10146778;28;20166;-69
2022/03/19 08:19:35;;;;;;;37.88;17.02;;;8.40;90.00;;;;;;10117680;28;20028;-68
2022/03/19 08:24:26;;;;;;;33.30;15.27;;;8.40;89.20;;;;;;10143841;28;20420;-65
2022/03/19 08:29:16;;;;;;;25.00;14.48;;;8.50;88.80;;;;;;10142503;28;20252;-69
2022/03/19 08:34:07;;;;;;;29.80;14.63;;;8.50;88.70;;;;;;10117109;28;20033;-69
2022/03/19 08:44:07;;;;;;;30.10;16.23;;;8.70;88.20;;;;;;10140010;28;20643;-65
2022/03/19 08:48:58;;;;;;;32.67;16.42;;;8.80;87.50;;;;;;10091522;28;20179;-67
2022/03/19 08:53:49;;;;;;;33.33;16.13;;;8.90;87.00;;;;;;10079180;28;20083;-65
2022/03/19 08:58:40;;;;;;;31.98;16.50;;;9.10;86.70;;;;;;10099588;28;20072;-67
2022/03/19 09:03:30;;;;;;;27.25;15.93;;;9.20;86.00;;;;;;10099008;28;20134;-66
2022/03/19 09:08:22;;;;;;;34.22;16.38;;;9.30;85.60;;;;;;10096263;28;20041;-67
2022/03/19 09:13:13;;;;;;;35.80;15.85;;;9.40;85.10;;;;;;10084350;28;20032;-66
2022/03/19 09:18:05;;;;;;;24.52;15.13;;;9.50;84.70;;;;;;10095238;28;20025;-69
2022/03/19 09:22:56;;;;;;;30.90;15.85;;;9.50;84.40;;;;;;10090141;28;20402;-70
2022/03/19 09:27:47;;;;;;;33.78;17.25;;;9.70;84.30;;;;;;10090360;28;20022;-68
2022/03/19 09:32:37;;;;;;;35.78;16.98;;;9.80;83.60;;;;;;10055583;28;20037;-68
2022/03/19 09:37:28;;;;;;;32.40;16.45;;;9.90;83.00;;;;;;10062646;28;20035;-68
2022/03/19 09:42:19;;;;;;;28.35;14.57;;;10.00;82.60;;;;;;10076073;28;20200;-66
2022/03/19 09:47:10;;;;;;;29.25;15.43;;;10.20;81.80;;;;;;10090442;28;20056;-66
2022/03/19 09:52:03;;;;;;;27.95;14.88;;;10.40;81.20;;;;;;10083160;28;20033;-67
2022/03/19 09:56:54;;;;;;;29.65;14.65;;;10.50;80.70;;;;;;10080697;28;20046;-68
2022/03/19 10:01:48;;;;;;;25.45;14.45;;;10.60;80.40;;;;;;10091755;28;20037;-67
2022/03/19 10:12:01;;;;;;;26.67;13.80;;;10.90;77.90;;;;;;10099834;28;20051;-68
2022/03/19 10:16:52;;;;;;;23.67;13.50;;;10.90;78.40;;;;;;10092161;28;20068;-67
2022/03/19 10:21:44;;;;;;;34.30;16.50;;;11.00;77.90;;;;;;10085714;28;20426;-67
2022/03/19 10:26:37;;;;;;;27.05;13.55;;;10.90;77.10;;;;;;10099271;28;20024;-67
2022/03/19 10:31:40;;;;;;;27.13;14.55;;;11.00;76.50;;;;;;10083420;28;20021;-68
2022/03/19 10:36:42;;;;;;;29.38;13.95;;;11.10;75.20;;;;;;10097488;28;20611;-68
2022/03/19 10:41:35;;;;;;;31.17;14.73;;;11.30;75.60;;;;;;10081160;28;20044;-67
2022/03/19 10:46:26;;;;;;;29.20;13.38;;;11.40;75.30;;;;;;10107529;28;20044;-66
2022/03/19 10:51:20;;;;;;;27.10;13.02;;;11.50;75.10;;;;;;10092902;28;20280;-69
2022/03/19 10:56:11;;;;;;;19.77;12.50;;;11.60;74.80;;;;;;10113985;28;20033;-68
2022/03/19 11:01:03;;;;;;;28.73;13.98;;;11.60;73.90;;;;;;10114809;28;20036;-68
2022/03/19 11:06:04;;;;;;;24.85;14.45;;;11.60;73.60;;;;;;10110749;28;20091;-67
2022/03/19 11:10:58;;;;;;;24.40;13.20;;;11.90;72.90;;;;;;10085031;28;20798;-70
2022/03/19 11:15:54;;;;;;;26.73;12.55;;;12.00;72.90;;;;;;10103337;28;20029;-66
2022/03/19 11:20:46;;;;;;;22.67;12.63;;;12.10;72.70;;;;;;10112769;28;20053;-67
2022/03/19 11:25:49;;;;;;;26.80;13.10;;;12.10;71.90;;;;;;10117174;28;20100;-67
2022/03/19 11:30:58;;;;;;;22.77;11.93;;;12.10;70.80;;;;;;10106595;28;20037;-69
2022/03/19 11:35:56;;;;;;;27.77;14.20;;;12.20;71.00;;;;;;10114443;28;20025;-65
2022/03/19 11:40:54;;;;;;;22.58;12.07;;;12.10;70.70;;;;;;10090103;28;20403;-67
2022/03/19 11:45:59;;;;;;;25.38;13.02;;;12.30;70.90;;;;;;10106686;28;20052;-66
2022/03/19 11:50:50;;;;;;;21.42;11.80;;;12.30;69.90;;;;;;10099786;28;20021;-65
2022/03/19 11:55:41;;;;;;;24.00;12.15;;;12.40;70.10;;;;;;10099342;28;20032;-68
2022/03/19 12:00:36;;;;;;;19.92;12.25;;;12.50;70.20;;;;;;10094346;28;20067;-66
2022/03/19 12:05:27;;;;;;;22.48;11.52;;;12.50;69.10;;;;;;10096299;28;20037;-69
2022/03/19 12:10:20;;;;;;;21.67;12.45;;;12.60;68.90;;;;;;10074944;28;20029;-68
2022/03/19 12:15:32;;;;;;;21.55;11.82;;;12.70;68.70;;;;;;10093577;28;20388;-67
2022/03/19 12:20:23;;;;;;;22.98;13.10;;;12.90;66.30;;;;;;10092450;28;20487;-68
2022/03/19 12:25:34;;;;;;;27.38;12.77;;;13.00;67.70;;;;;;10083032;28;20170;-68
2022/03/19 12:30:25;;;;;;;26.00;13.45;;;13.00;66.00;;;;;;10091714;28;20020;-67
2022/03/19 12:35:17;;;;;;;24.05;12.23;;;13.20;66.80;;;;;;10077052;28;20055;-68
2022/03/19 12:40:08;;;;;;;27.88;14.77;;;13.40;66.60;;;;;;10091919;28;20300;-70
2022/03/19 12:45:03;;;;;;;27.30;13.63;;;13.70;66.00;;;;;;10093960;28;20135;-69
2022/03/19 12:49:55;;;;;;;24.10;12.93;;;14.00;65.30;;;;;;10094914;28;20482;-67
2022/03/19 12:54:48;;;;;;;22.48;13.27;;;14.20;65.10;;;;;;10095272;28;20117;-67
2022/03/19 12:59:56;;;;;;;23.65;13.27;;;14.50;65.20;;;;;;10094816;28;20495;-69
2022/03/19 13:04:47;;;;;;;25.90;14.27;;;14.70;61.40;;;;;;10097626;28;20136;-69
2022/03/19 13:09:39;;;;;;;26.60;14.18;;;15.00;63.80;;;;;;10099990;28;20312;-66
2022/03/19 13:14:31;;;;;;;19.55;12.38;;;15.20;64.10;;;;;;10096999;28;20028;-68
2022/03/19 13:19:32;;;;;;;23.50;13.85;;;15.50;62.60;;;;;;10090598;28;20029;-68
2022/03/19 13:24:25;;;;;;;21.20;13.68;;;15.70;63.20;;;;;;10081984;28;20219;-68
2022/03/19 13:29:32;;;;;;;18.90;12.80;;;15.80;61.50;;;;;;10099521;28;20021;-67
2022/03/19 13:34:29;;;;;;;19.77;11.60;;;16.00;59.90;;;;;;10110963;28;20044;-67
2022/03/19 13:39:32;;;;;;;19.58;12.55;;;16.30;56.40;;;;;;10098106;28;20080;-67
2022/03/19 13:44:39;;;;;;;19.23;12.43;;;17.10;57.20;;;;;;10119501;28;20417;-67
2022/03/19 13:49:45;;;;;;;17.77;11.32;;;19.60;51.30;;;;;;10084617;28;20336;-68
2022/03/19 13:54:45;;;;;;;12.60;9.40;;;21.30;47.40;;;;;;10112474;28;20537;-67
2022/03/19 13:59:36;;;;;;;9.77;7.15;;;21.80;44.00;;;;;;10119171;28;20083;-67
2022/03/19 14:04:27;;;;;;;9.73;7.05;;;21.80;44.40;;;;;;10104816;28;20037;-65
2022/03/19 14:09:18;;;;;;;10.32;6.78;;;21.60;43.60;;;;;;10090445;28;20037;-68
2022/03/19 14:14:08;;;;;;;8.50;6.05;;;20.00;43.40;;;;;;10084809;28;20032;-70
2022/03/19 14:19:01;;;;;;;9.82;6.75;;;19.20;43.00;;;;;;10105926;28;20358;-67
2022/03/19 14:23:52;;;;;;;9.38;7.13;;;19.30;43.00;;;;;;10108096;28;20115;-66
2022/03/19 14:28:43;;;;;;;7.35;4.97;;;19.40;42.60;;;;;;10108316;28;20040;-66
2022/03/19 14:33:33;;;;;;;6.75;4.90;;;19.00;42.30;;;;;;10108897;28;20575;-67
2022/03/19 14:38:26;;;;;;;7.47;5.10;;;19.50;43.10;;;;;;10107431;28;20021;-67
2022/03/19 14:43:18;;;;;;;7.50;5.23;;;20.00;41.40;;;;;;10111265;28;20059;-66
2022/03/19 14:48:09;;;;;;;11.00;4.50;;;20.70;40.90;;;;;;10106559;28;20087;-68
2022/03/19 14:52:59;;;;;;;6.72;3.72;;;20.70;39.50;;;;;;10103298;28;20737;-66
2022/03/19 14:57:52;;;;;;;7.45;3.70;;;21.70;38.80;;;;;;10115299;28;20021;-67
2022/03/19 15:02:43;;;;;;;9.43;3.78;;;21.90;37.20;;;;;;10089454;28;20072;-68
2022/03/19 15:07:33;;;;;;;6.32;3.20;;;22.00;35.90;;;;;;10099780;28;20029;-67
2022/03/19 15:12:24;;;;;;;5.15;2.72;;;22.80;34.80;;;;;;10097744;28;20082;-66
2022/03/19 15:17:16;;;;;;;4.72;3.50;;;22.80;33.10;;;;;;10113169;28;20382;-66
2022/03/19 15:22:07;;;;;;;5.10;3.20;;;22.90;32.10;;;;;;10104603;28;20391;-67
2022/03/19 15:26:58;;;;;;;8.13;3.78;;;23.50;31.50;;;;;;10106505;28;20071;-66
2022/03/19 15:31:57;;;;;;;5.22;3.45;;;24.10;30.80;;;;;;10090163;28;20032;-67
2022/03/19 15:36:48;;;;;;;5.15;2.97;;;24.30;29.60;;;;;;10100647;28;20043;-68
2022/03/19 15:41:39;;;;;;;4.75;2.72;;;24.70;30.00;;;;;;10103855;28;20044;-67
2022/03/19 15:46:30;;;;;;;5.80;2.78;;;24.00;29.60;;;;;;10103433;28;20139;-67
2022/03/19 15:51:21;;;;;;;6.75;2.45;;;24.10;29.50;;;;;;10085536;28;20096;-67
2022/03/19 15:56:12;;;;;;;4.75;2.67;;;24.70;29.40;;;;;;10119047;28;20098;-68
2022/03/19 16:01:04;;;;;;;3.97;2.60;;;23.90;29.50;;;;;;10098971;28;20025;-65
2022/03/19 16:05:55;;;;;;;4.25;2.10;;;23.80;29.40;;;;;;10099523;28;20152;-67
2022/03/19 16:10:46;;;;;;;2.92;1.98;;;23.40;29.10;;;;;;10102331;28;20029;-67
2022/03/19 16:15:37;;;;;;;4.45;2.50;;;23.00;29.10;;;;;;10085113;28;20499;-67
2022/03/19 16:20:27;;;;;;;4.57;2.53;;;23.20;28.80;;;;;;10103360;28;20029;-67
2022/03/19 16:25:18;;;;;;;4.90;2.38;;;23.50;28.40;;;;;;10098226;28;20111;-66
2022/03/19 16:30:10;;;;;;;3.58;1.83;;;23.00;28.50;;;;;;10095712;28;20040;-68
2022/03/19 16:35:02;;;;;;;2.83;1.77;;;20.10;29.40;;;;;;10094218;28;20082;-66
2022/03/19 16:39:56;;;;;;;4.47;2.35;;;16.60;31.50;;;;;;10094842;28;20033;-66
2022/03/19 16:44:46;;;;;;;3.67;1.55;;;15.40;32.20;;;;;;10093979;28;20052;-66
2022/03/19 16:49:37;;;;;;;4.32;2.03;;;14.70;32.20;;;;;;10093859;28;20041;-68
2022/03/19 16:54:28;;;;;;;4.63;2.15;;;14.70;32.00;;;;;;10098727;28;20383;-66
2022/03/19 16:59:18;;;;;;;2.65;1.60;;;14.50;31.40;;;;;;10102334;28;20070;-66
2022/03/19 17:04:09;;;;;;;3.83;2.28;;;14.20;31.60;;;;;;10098367;28;20037;-67
2022/03/19 17:09:00;;;;;;;2.22;1.63;;;13.80;31.80;;;;;;10098823;28;20116;-68
2022/03/19 17:13:51;;;;;;;2.53;1.10;;;13.70;31.90;;;;;;10092237;28;20029;-67
2022/03/19 17:18:41;;;;;;;4.07;2.22;;;13.50;32.10;;;;;;10091389;28;20110;-66
2022/03/19 17:23:32;;;;;;;3.83;1.63;;;13.30;32.40;;;;;;10076777;28;20037;-67
2022/03/19 17:28:23;;;;;;;3.90;2.20;;;13.10;32.70;;;;;;10097370;28;20140;-68
2022/03/19 17:33:13;;;;;;;2.97;1.80;;;12.80;33.20;;;;;;10101165;28;20687;-67
2022/03/19 17:38:05;;;;;;;2.78;2.00;;;12.70;34.20;;;;;;10095318;28;20088;-66
2022/03/19 17:42:56;;;;;;;3.25;1.70;;;12.60;34.00;;;;;;10096099;28;20064;-65
2022/03/19 17:47:47;;;;;;;8.35;2.60;;;12.50;34.20;;;;;;10092996;28;20082;-65
2022/03/19 17:52:41;;;;;;;4.20;1.85;;;12.30;34.60;;;;;;10080013;28;20114;-65
2022/03/19 17:57:32;;;;;;;2.95;1.52;;;12.10;34.90;;;;;;10096513;28;20079;-66
2022/03/19 18:02:23;;;;;;;3.53;1.55;;;12.10;35.00;;;;;;10078565;28;20041;-66
2022/03/19 18:07:14;;;;;;;4.80;2.08;;;11.90;35.20;;;;;;10090684;28;20603;-65
2022/03/19 18:12:05;;;;;;;4.30;1.88;;;11.80;35.50;;;;;;10089874;28;20099;-66
2022/03/19 18:16:56;;;;;;;2.55;1.60;;;11.80;35.80;;;;;;10103313;28;20585;-65
2022/03/19 18:21:46;;;;;;;6.85;2.03;;;11.70;36.20;;;;;;10097097;28;20041;-65
2022/03/19 18:26:37;;;;;;;2.30;1.90;;;11.60;36.60;;;;;;10103191;28;20070;-66
2022/03/19 18:31:28;;;;;;;3.55;1.83;;;11.50;37.30;;;;;;10082014;28;20036;-66
2022/03/19 18:36:18;;;;;;;3.88;1.92;;;11.30;37.80;;;;;;10103699;28;20682;-67
2022/03/19 18:41:11;;;;;;;3.60;1.90;;;11.30;38.20;;;;;;10076878;28;20422;-65
2022/03/19 18:46:01;;;;;;;4.15;2.08;;;11.10;38.80;;;;;;10098254;28;20156;-66
2022/03/19 18:50:52;;;;;;;5.40;2.17;;;11.00;39.00;;;;;;10102691;28;20364;-66
2022/03/19 18:55:43;;;;;;;5.53;2.28;;;11.00;39.40;;;;;;10106192;28;20077;-65
2022/03/19 19:00:33;;;;;;;5.13;2.30;;;11.00;39.80;;;;;;10101089;28;20028;-66
2022/03/19 19:05:24;;;;;;;4.82;2.13;;;10.70;40.50;;;;;;10093303;28;20072;-66
2022/03/19 19:10:15;;;;;;;4.03;2.45;;;10.70;40.90;;;;;;10102911;28;20033;-66
2022/03/19 19:15:07;;;;;;;4.90;2.80;;;10.80;41.00;;;;;;10104466;28;20516;-66
2022/03/19 19:19:58;;;;;;;5.53;2.40;;;10.70;41.40;;;;;;10093742;28;20075;-67
2022/03/19 19:24:48;;;;;;;4.60;2.03;;;10.70;41.90;;;;;;10106021;28;20114;-66
2022/03/19 19:29:40;;;;;;;4.72;2.85;;;10.70;42.10;;;;;;10110175;28;20122;-67
2022/03/19 19:34:32;;;;;;;6.82;3.13;;;10.70;43.40;;;;;;10087769;28;20505;-66
2022/03/19 19:39:22;;;;;;;5.72;2.78;;;10.50;43.70;;;;;;10083950;28;20060;-66
2022/03/19 19:44:13;;;;;;;5.25;2.95;;;10.60;43.70;;;;;;10102215;28;20104;-66
2022/03/19 19:49:04;;;;;;;5.63;3.25;;;10.40;44.50;;;;;;10104149;28;20244;-65
2022/03/19 19:53:56;;;;;;;7.45;3.10;;;10.30;45.40;;;;;;10096477;28;20124;-66
2022/03/19 19:58:47;;;;;;;5.80;2.95;;;10.20;45.70;;;;;;10110515;28;20426;-66
2022/03/19 20:03:38;;;;;;;7.65;3.15;;;10.30;46.00;;;;;;10097773;28;20048;-66
2022/03/19 20:08:28;;;;;;;4.70;3.28;;;10.40;46.00;;;;;;10093038;28;20022;-67
2022/03/19 20:13:19;;;;;;;4.63;2.65;;;10.40;46.40;;;;;;10096396;28;20639;-65
2022/03/19 20:18:10;;;;;;;6.45;3.22;;;10.30;47.10;;;;;;10083967;28;20612;-65
2022/03/19 20:23:01;;;;;;;4.85;3.17;;;10.20;47.90;;;;;;10095169;28;20094;-66
2022/03/19 20:27:53;;;;;;;6.00;3.17;;;10.20;48.20;;;;;;10091277;28;20112;-66
2022/03/19 20:32:45;;;;;;;7.45;4.15;;;9.90;49.10;;;;;;10093412;28;20568;-68
2022/03/19 20:37:38;;;;;;;6.82;3.40;;;10.00;49.10;;;;;;10096145;28;20077;-66
2022/03/19 20:42:30;;;;;;;6.22;3.65;;;9.80;50.20;;;;;;10093130;28;20487;-66
2022/03/19 20:47:22;;;;;;;6.00;3.63;;;9.70;50.50;;;;;;10086037;28;20045;-66
2022/03/19 20:52:13;;;;;;;7.80;3.90;;;9.60;50.90;;;;;;10095179;28;20075;-67
2022/03/19 20:57:04;;;;;;;7.88;3.30;;;9.80;50.70;;;;;;10082060;28;20033;-66
2022/03/19 21:02:01;;;;;;;6.25;3.30;;;9.70;51.40;;;;;;10076473;28;20037;-66
2022/03/19 21:06:52;;;;;;;7.82;3.33;;;9.60;51.80;;;;;;10091525;28;20536;-66
2022/03/19 21:11:46;;;;;;;8.60;4.07;;;9.60;51.80;;;;;;10086942;28;20060;-67
2022/03/19 21:16:38;;;;;;;6.90;3.53;;;9.70;51.60;;;;;;10090963;28;20806;-66
2022/03/19 21:21:30;;;;;;;5.95;3.10;;;9.50;52.60;;;;;;10092444;28;20025;-67
2022/03/19 21:26:20;;;;;;;4.60;2.95;;;9.40;53.10;;;;;;10088637;28;20028;-67
2022/03/19 21:31:11;;;;;;;10.23;4.40;;;9.40;53.50;;;;;;10078371;28;20040;-66
2022/03/19 21:36:02;;;;;;;9.38;4.32;;;9.40;53.70;;;;;;10093892;28;20266;-66
2022/03/19 21:40:54;;;;;;;6.35;3.60;;;9.30;54.40;;;;;;10073811;28;20685;-67
2022/03/19 21:45:45;;;;;;;5.40;3.65;;;9.20;54.60;;;;;;10065642;28;20048;-67
2022/03/19 21:50:37;;;;;;;8.10;3.72;;;9.10;55.30;;;;;;10075388;28;20130;-67
2022/03/19 21:55:28;;;;;;;7.47;3.83;;;9.00;55.80;;;;;;10093493;28;20060;-66
2022/03/19 22:00:20;;;;;;;9.93;4.30;;;9.00;56.00;;;;;;10105656;28;20414;-67
2022/03/19 22:05:11;;;;;;;7.90;4.25;;;9.00;56.20;;;;;;10103865;28;20051;-66
2022/03/19 22:10:03;;;;;;;9.82;4.55;;;8.90;56.50;;;;;;10091424;28;20036;-67
2022/03/19 22:14:55;;;;;;;10.10;4.60;;;8.90;57.50;;;;;;10098480;28;20789;-67
2022/03/19 22:24:55;;;;;;;9.40;5.28;;;8.80;57.80;;;;;;10099468;28;20099;-67
2022/03/19 22:29:46;;;;;;;10.07;5.18;;;8.70;58.30;;;;;;10112255;28;20021;-67
2022/03/19 22:34:37;;;;;;;9.13;5.18;;;8.80;58.10;;;;;;10098681;28;20018;-67
2022/03/19 22:39:27;;;;;;;10.40;5.47;;;8.60;58.60;;;;;;10098460;28;20029;-67
2022/03/19 22:44:18;;;;;;;9.02;5.18;;;8.60;59.30;;;;;;10094061;28;20140;-67
2022/03/19 22:49:09;;;;;;;10.05;5.95;;;8.50;59.30;;;;;;10103225;28;20044;-66
2022/03/19 22:53:59;;;;;;;14.18;7.22;;;8.50;59.20;;;;;;10106814;28;20402;-66
2022/03/19 22:58:51;;;;;;;10.02;6.30;;;8.50;59.60;;;;;;10076061;28;20032;-66
2022/03/19 23:03:42;;;;;;;10.85;5.90;;;8.40;59.60;;;;;;10078059;28;20033;-66
2022/03/19 23:08:33;;;;;;;12.57;6.38;;;8.40;59.80;;;;;;10094054;28;20062;-67
2022/03/19 23:13:25;;;;;;;10.45;6.47;;;8.40;60.60;;;;;;10090587;28;20036;-67
2022/03/19 23:18:16;;;;;;;12.43;6.80;;;8.30;60.90;;;;;;10087385;28;20549;-67
2022/03/19 23:23:08;;;;;;;15.68;8.20;;;8.30;61.40;;;;;;10097085;28;20045;-67
2022/03/19 23:27:59;;;;;;;11.27;6.47;;;8.20;62.00;;;;;;10095030;28;20108;-67
2022/03/19 23:32:50;;;;;;;12.77;6.82;;;8.30;62.50;;;;;;10087852;28;20549;-66
2022/03/19 23:37:41;;;;;;;14.30;7.32;;;8.30;62.00;;;;;;10094872;28;20655;-67
2022/03/19 23:42:31;;;;;;;15.48;6.97;;;8.30;62.70;;;;;;10099471;28;20029;-67
2022/03/19 23:47:22;;;;;;;16.90;8.43;;;8.20;63.10;;;;;;10099403;28;20154;-67
2022/03/19 23:52:15;;;;;;;11.57;7.57;;;8.20;63.10;;;;;;10111556;28;20426;-66
2022/03/19 23:57:05;;;;;;;14.52;7.53;;;8.10;64.20;;;;;;10099335;28;20124;-67
